Uvada, Utah
Current Conditions -  °F | °C
As of 1:53 AM on Wednesday 26 Nov 2014 (Local Time) from KCDC Reporting Station
Clear Clear  
Wind Chill: 27°   Ceiling: Unl
Heat Index: 27°   Visibility: 10mi
Dew Point: 20°   Wind: 3mph
Humidity: 75%   Direction: 20°NNE
Pressure: 30.4"   Gusts: NA
Location:  37.8003°N, 113.924°W
Report Text: KCDC 260853Z AUTO 02003KT 10SM CLR M03/M07 A3040 RMK AO2 SLP285 T10281067 56002 $
Loading
Personal Weather Stations






























Interactive Weather Map New forecast layout! Learn more

10-Day Weather Forecast

Advertisements
Track Severe Weather on mobile